Terminal Aerodrome Forecast
Issued by NWS Quad Cities IA IL

Home | Current Version | Previous Version | Text Only | Print | Product List | Glossary On
Versions: 1 2 3 4 5 6 7 8 9 10 11 12 13 14 15 16 17 18 19
000
FTUS43 KDVN 290500
TAFMLI
TAF
KMLI 290520Z 2906/3006 16009KT P6SM FEW250
     FM291000 18013G21KT P6SM FEW120 BKN250
     FM291500 19015G25KT P6SM VCSH SCT080 OVC120
      TEMPO 2915/2919 4SM -SHRA BKN050 OVC080
     FM292100 29016G28KT P6SM FEW100 SCT250=

USA.gov is the U.S. government's official web portal to all federal, state and local government web resources and services.